Moose Lake, MN

8:39 PM CDT on June 28, 2017 (GMT -0500)
Moose Lake-Carlton County

Weather History for KMZH - April, 2013

Change the Weather History Date:

Tuesday, April 23, 2013

  Actual Average Record
Temperature  
Mean Temperature 34 °F -  
Max Temperature 41 °F 56 °F 86 °F (1990)
Min Temperature 28 °F 31 °F 19 °F (1956)
Degree Days  
Heating Degree Days 30    
Moisture  
Dew Point 14 °F    
Average Humidity 48    
Maximum Humidity 80    
Minimum Humidity 21    
Precipitation  
Precipitation 0.01 in - - ()
Sea Level Pressure  
Sea Level Pressure 30.06 in    
Wind  
Wind Speed 7 mph (NW)    
Max Wind Speed 13 mph    
Max Gust Speed 17 mph    
Visibility 9 miles    
Events Snow    
Averages and records for this station are not official NWS values.
T = Trace of Precipitation, MM = Missing Value Source: NWS Daily Summary

Daily Weather History Graph

Daily Weather History Graph

Search for Another Location

Airport or City:

Trip Planner

Search our weather history database for the weather conditions in past years. The results will help you decide how hot, cold, wet, or windy it might be!

Date:

Astronomy

Apr. 23, 2013 Rise Set
Actual Time 6:09 AM CDT 8:10 PM CDT
Civil Twilight 5:37 AM CDT 8:42 PM CDT
Nautical Twilight 4:57 AM CDT 9:22 PM CDT
Astronomical Twilight 4:13 AM CDT 10:07 PM CDT
Moon 5:59 PM CDT (4/23) 4:46 AM CDT (4/23)
Length of Visible Light 15h 05m
Length of Day
14h 00m
Waxing Gibbous, 94% of the Moon is Illuminated
Apr 23
Waxing Gibbous
Apr 25
Full
May 2
Last Quarter
May 9
New
May 17
First Quarter

Hourly Weather History & Observations

Time (CDT) Temp. Windchill Dew Point Humidity Pressure Visibility Wind Dir Wind Speed Gust Speed Precip Events Conditions
12:13 AM 32.0 °F 27.5 °F 26.6 °F 80% 30.15 in 4.0 mi North 4.6 mph - N/A   Overcast
12:33 AM 32.0 °F 26.4 °F 26.6 °F 80% 30.14 in 3.0 mi North 5.8 mph - 0.01 in Snow Light Snow
12:53 AM 32.0 °F 24.8 °F 26.6 °F 80% 30.14 in 2.5 mi North 8.1 mph - 0.01 in Snow Light Snow
1:13 AM 32.0 °F 26.4 °F 26.6 °F 80% 30.13 in 3.0 mi North 5.8 mph - N/A Snow Light Snow
1:33 AM 32.0 °F 26.4 °F 26.6 °F 80% 30.13 in 3.0 mi North 5.8 mph - N/A Snow Light Snow
1:53 AM 32.0 °F 24.8 °F 26.6 °F 80% 30.13 in 4.0 mi North 8.1 mph - N/A Snow Light Snow
2:13 AM 32.0 °F 26.4 °F 26.6 °F 80% 30.12 in 5.0 mi North 5.8 mph - N/A Snow Light Snow
2:33 AM 32.0 °F 25.6 °F 26.6 °F 80% 30.12 in 7.0 mi North 6.9 mph - N/A   Overcast
2:53 AM 32.0 °F 26.4 °F 24.8 °F 75% 30.12 in 10.0 mi NNW 5.8 mph - N/A   Overcast
3:13 AM 32.0 °F 25.6 °F 24.8 °F 75% 30.12 in 4.0 mi NNW 6.9 mph - N/A Snow Light Snow
3:33 AM 32.0 °F 28.7 °F 26.6 °F 80% 30.12 in 3.0 mi NNW 3.5 mph - N/A Snow Light Snow
3:53 AM 32.0 °F 25.6 °F 26.6 °F 80% 30.11 in 2.5 mi North 6.9 mph - N/A Snow Light Snow
4:13 AM 30.2 °F 25.4 °F 24.8 °F 80% 30.11 in 5.0 mi NNW 4.6 mph - N/A Snow Light Snow
4:33 AM 30.2 °F 23.4 °F 24.8 °F 80% 30.09 in 4.0 mi North 6.9 mph - N/A Snow Light Snow
5:13 AM 30.2 °F 25.4 °F 23.0 °F 75% 30.09 in 10.0 mi North 4.6 mph - N/A   Overcast
5:33 AM 30.2 °F 26.7 °F 23.0 °F 75% 30.09 in 10.0 mi NNW 3.5 mph - N/A   Mostly Cloudy
5:53 AM 28.4 °F 24.6 °F 23.0 °F 80% 30.09 in 10.0 mi NNW 3.5 mph - N/A   Mostly Cloudy
6:13 AM 28.4 °F 23.3 °F 23.0 °F 80% 30.09 in 10.0 mi NW 4.6 mph - N/A   Overcast
6:33 AM 28.4 °F 22.2 °F 21.2 °F 74% 30.09 in 10.0 mi NW 5.8 mph - N/A   Overcast
6:53 AM 28.4 °F 23.3 °F 19.4 °F 69% 30.11 in 10.0 mi NW 4.6 mph - N/A   Overcast
7:13 AM 28.4 °F 22.2 °F 17.6 °F 64% 30.11 in 10.0 mi NW 5.8 mph - N/A   Scattered Clouds
7:33 AM 28.4 °F 23.3 °F 17.6 °F 64% 30.12 in 10.0 mi NW 4.6 mph - N/A   Mostly Cloudy
7:53 AM 28.4 °F 22.2 °F 17.6 °F 64% 30.12 in 10.0 mi NW 5.8 mph - N/A   Scattered Clouds
8:13 AM 28.4 °F 23.3 °F 17.6 °F 64% 30.11 in 10.0 mi NNW 4.6 mph - N/A   Clear
8:33 AM 30.2 °F 23.4 °F 17.6 °F 60% 30.11 in 10.0 mi NNW 6.9 mph - N/A   Clear
8:53 AM 32.0 °F 24.8 °F 19.4 °F 60% 30.09 in 10.0 mi NNW 8.1 mph - N/A   Clear
9:13 AM 32.0 °F 26.4 °F 19.4 °F 60% 30.09 in 10.0 mi NNW 5.8 mph - N/A   Clear
9:33 AM 33.8 °F 27.7 °F 19.4 °F 56% 30.10 in 10.0 mi NW 6.9 mph - N/A   Clear
9:53 AM 33.8 °F 27.7 °F 19.4 °F 56% 30.09 in 10.0 mi NNW 6.9 mph - N/A   Clear
10:13 AM 33.8 °F 26.4 °F 15.8 °F 48% 30.09 in 10.0 mi North 9.2 mph - N/A   Clear
10:33 AM 33.8 °F 25.8 °F 15.8 °F 48% 30.09 in 10.0 mi North 10.4 mph - N/A   Scattered Clouds
10:53 AM 35.6 °F 27.1 °F 14.0 °F 41% 30.09 in 10.0 mi NNW 12.7 mph 17.3 mph N/A   Scattered Clouds
11:13 AM 35.6 °F 28.6 °F 12.2 °F 38% 30.08 in 10.0 mi NNW 9.2 mph 16.1 mph N/A   Scattered Clouds
11:33 AM 37.4 °F 32.8 °F 12.2 °F 36% 30.08 in 10.0 mi NW 5.8 mph - N/A   Mostly Cloudy
11:53 AM 35.6 °F 27.5 °F 8.6 °F 33% 30.07 in 10.0 mi North 11.5 mph 17.3 mph N/A   Mostly Cloudy
12:13 PM 37.4 °F 29.3 °F 10.4 °F 33% 30.06 in 10.0 mi NNW 12.7 mph 16.1 mph N/A   Scattered Clouds
12:33 PM 37.4 °F 29.8 °F 10.4 °F 33% 30.05 in 10.0 mi NW 11.5 mph - N/A   Scattered Clouds
12:53 PM 37.4 °F 32.1 °F 10.4 °F 33% 30.05 in 10.0 mi WNW 6.9 mph - N/A   Scattered Clouds
1:13 PM 37.4 °F 29.3 °F 8.6 °F 30% 30.04 in 10.0 mi North 12.7 mph - N/A   Scattered Clouds
1:33 PM 39.2 °F 32.5 °F 6.8 °F 26% 30.04 in 10.0 mi NW 10.4 mph - N/A   Clear
1:53 PM 39.2 °F 32.0 °F 8.6 °F 28% 30.04 in 10.0 mi NW 11.5 mph - N/A   Clear
2:13 PM 41.0 °F 35.8 °F 8.6 °F 26% 30.03 in 10.0 mi NNW 8.1 mph - N/A   Clear
2:33 PM 39.2 °F 34.2 °F 6.8 °F 26% 30.03 in 10.0 mi NNW 6.9 mph 17.3 mph N/A   Clear
2:53 PM 39.2 °F 33.0 °F 5.0 °F 24% 30.03 in 10.0 mi NNW 9.2 mph 16.1 mph N/A   Clear
3:13 PM 39.2 °F 31.6 °F 5.0 °F 24% 30.03 in 10.0 mi WNW 12.7 mph 16.1 mph N/A   Clear
3:33 PM 41.0 °F 36.4 °F 6.8 °F 24% 30.02 in 10.0 mi NW 6.9 mph - N/A   Clear
3:53 PM 41.0 °F 35.8 °F 6.8 °F 24% 30.02 in 10.0 mi West 8.1 mph - N/A   Clear
4:13 PM 41.0 °F 35.8 °F 6.8 °F 24% 30.01 in 10.0 mi West 8.1 mph - N/A   Clear
4:33 PM 41.0 °F 34.7 °F 8.6 °F 26% 30.02 in 10.0 mi WNW 10.4 mph - N/A   Scattered Clouds
4:53 PM 41.0 °F 37.1 °F 5.0 °F 23% 30.01 in 10.0 mi NW 5.8 mph - N/A   Clear
5:13 PM 41.0 °F 34.3 °F 5.0 °F 23% 30.01 in 10.0 mi WNW 11.5 mph - N/A   Clear
5:33 PM 41.0 °F 34.3 °F 3.2 °F 21% 30.01 in 10.0 mi NW 11.5 mph 16.1 mph N/A   Clear
5:53 PM 41.0 °F 34.7 °F 3.2 °F 21% 30.01 in 10.0 mi NNW 10.4 mph - N/A   Clear
6:13 PM 41.0 °F 35.8 °F 3.2 °F 21% 30.01 in 10.0 mi WNW 8.1 mph - N/A   Clear
6:33 PM 41.0 °F 34.7 °F 5.0 °F 23% 30.00 in 10.0 mi West 10.4 mph - N/A   Clear
6:53 PM 41.0 °F 34.3 °F 3.2 °F 21% 30.00 in 10.0 mi WNW 11.5 mph - N/A   Clear
7:13 PM 39.2 °F 33.0 °F 3.2 °F 22% 30.00 in 10.0 mi West 9.2 mph - N/A   Clear
7:33 PM 37.4 °F 32.8 °F 3.2 °F 24% 30.00 in 10.0 mi WNW 5.8 mph - N/A   Clear
7:53 PM 37.4 °F 33.8 °F 5.0 °F 26% 30.00 in 10.0 mi West 4.6 mph - N/A   Clear
8:13 PM 35.6 °F 32.8 °F 5.0 °F 28% 30.00 in 10.0 mi West 3.5 mph - N/A   Clear
8:33 PM 35.6 °F 32.8 °F 6.8 °F 30% 30.00 in 10.0 mi West 3.5 mph - N/A   Clear
8:53 PM 33.8 °F 28.6 °F 6.8 °F 32% 30.01 in 10.0 mi West 5.8 mph - N/A   Clear
9:13 PM 33.8 °F 29.6 °F 6.8 °F 32% 30.01 in 10.0 mi West 4.6 mph - N/A   Clear
9:33 PM 33.8 °F 29.6 °F 6.8 °F 32% 30.01 in 10.0 mi WNW 4.6 mph - N/A   Clear
9:53 PM 32.0 °F 27.5 °F 5.0 °F 32% 30.01 in 10.0 mi WNW 4.6 mph - N/A   Clear
10:13 PM 30.2 °F 26.7 °F 10.4 °F 44% 30.01 in 10.0 mi West 3.5 mph - N/A   Clear
10:33 PM 30.2 °F 26.7 °F 10.4 °F 44% 30.01 in 10.0 mi West 3.5 mph - N/A   Clear
10:53 PM 28.4 °F 24.6 °F 10.4 °F 47% 30.01 in 10.0 mi West 3.5 mph - N/A   Clear
11:13 PM 28.4 °F 24.6 °F 10.4 °F 47% 30.01 in 10.0 mi West 3.5 mph - N/A   Clear
11:33 PM 28.4 °F 23.3 °F 10.4 °F 47% 30.00 in 10.0 mi WSW 4.6 mph - N/A   Clear
11:53 PM 28.4 °F 22.2 °F 10.4 °F 47% 30.00 in 10.0 mi West 5.8 mph - N/A   Clear